Huvudsida
METAR-TAF:

METAR-TAF

Flygplatser :

Røros flygplats

Röros, Norge

latitud: 62-35N, longitud: 011-21E, höjd: 626 m

Aktuellt väderrapport

Denna rapport gjordes för 16 minuter sedan, klockan 15:20 UTC
Vind 3 kt från ost, varierande mellan nordost och sydost
Temperatur 6°C
Fuktighet 70%
Tryck 1018 hPa
Sikt 10 km eller mer

METAR: ENRO 201520Z AUTO 08003KT 040V140 9999NDV OVC080/// 06/01 Q1018

Tid: 17:36 (15:36 UTC)

Väderprognos

Denna rapport gjordes för 28 timmar och 36 minuter sedan, klockan 11:00 UTC
Prognos gäller från 19 kl. 12 UTC till 19 kl. 18 UTC
Vind 5 kt varierande vindriktning
Sikt 10 km eller mer
Få moln på en höjd av 3000 ft
Brutna moln på en höjd av 8000 ft

TAF: ENRO 191100Z 1912/1918 VRB05KT 9999 FEW030 BKN080

Aktuella väderrapporter och prognoser från 4000 flygplatser (METAR- och TAF-rapporter).

De tillgängliga stationerna syns som gula och röda prickar på kartan.

För musen över prickarna för att se namnen på stationerna.

Klicka sedan för att få väderrapporter och prognoser.

För att ändra kartan: Klicka på de gröna knapparna med ett svart kors på för att zooma in; den gröna knappen med ett streck på för att zooma ut; eller på de gröna pilarna för angränsande kartor.


METAR-TAF: